sensor_id;sensor_type;location;lat;lon;timestamp;pressure;altitude;pressure_sealevel;temperature;humidity
33454;BME280;39400;49.744;7.012;2023-04-03T00:00:07;96780.34;;;1.40;100.00
33454;BME280;39400;49.744;7.012;2023-04-03T00:02:33;96780.16;;;1.28;100.00
33454;BME280;39400;49.744;7.012;2023-04-03T00:04:58;96780.78;;;1.25;100.00
33454;BME280;39400;49.744;7.012;2023-04-03T00:07:24;96773.13;;;1.27;100.00
33454;BME280;39400;49.744;7.012;2023-04-03T00:09:49;96768.47;;;1.19;100.00
33454;BME280;39400;49.744;7.012;2023-04-03T00:12:15;96775.47;;;1.11;100.00
33454;BME280;39400;49.744;7.012;2023-04-03T00:14:40;96772.69;;;1.03;100.00
33454;BME280;39400;49.744;7.012;2023-04-03T00:17:06;96770.22;;;1.15;100.00
33454;BME280;39400;49.744;7.012;2023-04-03T00:19:31;96775.41;;;1.03;100.00
33454;BME280;39400;49.744;7.012;2023-04-03T00:21:57;96774.44;;;0.99;100.00
33454;BME280;39400;49.744;7.012;2023-04-03T00:24:22;96771.38;;;0.91;100.00
33454;BME280;39400;49.744;7.012;2023-04-03T00:26:47;96777.06;;;0.81;100.00
33454;BME280;39400;49.744;7.012;2023-04-03T00:29:13;96777.06;;;0.81;100.00
33454;BME280;39400;49.744;7.012;2023-04-03T00:31:38;96781.22;;;0.87;100.00
33454;BME280;39400;49.744;7.012;2023-04-03T00:34:03;96790.53;;;0.73;100.00
33454;BME280;39400;49.744;7.012;2023-04-03T00:36:29;96781.84;;;0.62;100.00
33454;BME280;39400;49.744;7.012;2023-04-03T00:38:54;96778.34;;;0.61;100.00
33454;BME280;39400;49.744;7.012;2023-04-03T00:41:20;96772.56;;;0.77;100.00
33454;BME280;39400;49.744;7.012;2023-04-03T00:43:45;96780.63;;;0.68;100.00
33454;BME280;39400;49.744;7.012;2023-04-03T00:46:11;96774.75;;;0.66;100.00
33454;BME280;39400;49.744;7.012;2023-04-03T00:48:42;96778.06;;;0.63;100.00
33454;BME280;39400;49.744;7.012;2023-04-03T00:51:12;96774.75;;;0.66;100.00
33454;BME280;39400;49.744;7.012;2023-04-03T00:53:49;96775.44;;;0.49;100.00
33454;BME280;39400;49.744;7.012;2023-04-03T00:56:17;96773.63;;;0.44;100.00
33454;BME280;39400;49.744;7.012;2023-04-03T00:58:49;96766.13;;;0.41;100.00
33454;BME280;39400;49.744;7.012;2023-04-03T01:01:20;96771.06;;;0.39;100.00
33454;BME280;39400;49.744;7.012;2023-04-03T01:03:47;96763.59;;;0.45;100.00
33454;BME280;39400;49.744;7.012;2023-04-03T01:06:16;96762.34;;;0.42;100.00
33454;BME280;39400;49.744;7.012;2023-04-03T01:08:42;96765.50;;;0.44;100.00
33454;BME280;39400;49.744;7.012;2023-04-03T01:11:08;96766.25;;;0.36;100.00
33454;BME280;39400;49.744;7.012;2023-04-03T01:13:33;96768.97;;;0.36;100.00
33454;BME280;39400;49.744;7.012;2023-04-03T01:16:04;96768.94;;;0.59;100.00
33454;BME280;39400;49.744;7.012;2023-04-03T01:18:30;96761.81;;;0.40;100.00
33454;BME280;39400;49.744;7.012;2023-04-03T01:23:47;96757.28;;;0.27;100.00
33454;BME280;39400;49.744;7.012;2023-04-03T01:26:18;96763.38;;;0.33;100.00
33454;BME280;39400;49.744;7.012;2023-04-03T01:28:44;96770.94;;;0.22;100.00
33454;BME280;39400;49.744;7.012;2023-04-03T01:31:43;96763.94;;;0.21;100.00
33454;BME280;39400;49.744;7.012;2023-04-03T01:34:09;96752.72;;;0.14;100.00
33454;BME280;39400;49.744;7.012;2023-04-03T01:36:34;96745.47;;;0.23;100.00
33454;BME280;39400;49.744;7.012;2023-04-03T01:39:00;96748.69;;;0.25;100.00
33454;BME280;39400;49.744;7.012;2023-04-03T01:41:26;96742.53;;;0.11;100.00
33454;BME280;39400;49.744;7.012;2023-04-03T01:43:58;96745.91;;;0.16;100.00
33454;BME280;39400;49.744;7.012;2023-04-03T01:46:23;96744.22;;;0.52;100.00
33454;BME280;39400;49.744;7.012;2023-04-03T01:48:49;96739.97;;;0.28;100.00
33454;BME280;39400;49.744;7.012;2023-04-03T01:51:14;96740.03;;;0.14;100.00
33454;BME280;39400;49.744;7.012;2023-04-03T01:53:40;96743.16;;;0.08;100.00
33454;BME280;39400;49.744;7.012;2023-04-03T01:56:06;96741.84;;;0.05;100.00
33454;BME280;39400;49.744;7.012;2023-04-03T01:58:32;96739.84;;;0.11;100.00
33454;BME280;39400;49.744;7.012;2023-04-03T02:00:58;96738.47;;;0.22;100.00
33454;BME280;39400;49.744;7.012;2023-04-03T02:03:25;96746.03;;;0.11;100.00
33454;BME280;39400;49.744;7.012;2023-04-03T02:05:50;96750.94;;;0.09;100.00
33454;BME280;39400;49.744;7.012;2023-04-03T02:08:16;96745.94;;;0.03;100.00
33454;BME280;39400;49.744;7.012;2023-04-03T02:10:41;96750.56;;;0.02;100.00
33454;BME280;39400;49.744;7.012;2023-04-03T02:13:07;96745.47;;;0.01;100.00
33454;BME280;39400;49.744;7.012;2023-04-03T02:15:32;96758.38;;;0.04;100.00
33454;BME280;39400;49.744;7.012;2023-04-03T02:17:57;96752.28;;;-0.02;100.00
33454;BME280;39400;49.744;7.012;2023-04-03T02:20:23;96757.09;;;0.23;100.00
33454;BME280;39400;49.744;7.012;2023-04-03T02:22:48;96755.19;;;0.24;100.00
33454;BME280;39400;49.744;7.012;2023-04-03T02:25:14;96754.56;;;0.05;100.00
33454;BME280;39400;49.744;7.012;2023-04-03T02:27:40;96756.56;;;0.35;100.00
33454;BME280;39400;49.744;7.012;2023-04-03T02:30:05;96759.50;;;0.25;100.00
33454;BME280;39400;49.744;7.012;2023-04-03T02:32:32;96755.22;;;0.10;100.00
33454;BME280;39400;49.744;7.012;2023-04-03T02:34:57;96763.38;;;-0.04;100.00
33454;BME280;39400;49.744;7.012;2023-04-03T02:37:23;96759.84;;;-0.13;100.00
33454;BME280;39400;49.744;7.012;2023-04-03T02:39:50;96768.03;;;-0.18;100.00
33454;BME280;39400;49.744;7.012;2023-04-03T02:42:15;96765.84;;;-0.16;100.00
33454;BME280;39400;49.744;7.012;2023-04-03T02:44:41;96762.63;;;-0.18;100.00
33454;BME280;39400;49.744;7.012;2023-04-03T02:47:08;96762.56;;;0.10;100.00
33454;BME280;39400;49.744;7.012;2023-04-03T02:49:34;96756.78;;;0.03;100.00
33454;BME280;39400;49.744;7.012;2023-04-03T02:51:59;96757.00;;;-0.08;100.00
33454;BME280;39400;49.744;7.012;2023-04-03T02:54:24;96759.03;;;-0.13;100.00
33454;BME280;39400;49.744;7.012;2023-04-03T02:56:53;96765.66;;;-0.19;100.00
33454;BME280;39400;49.744;7.012;2023-04-03T02:59:18;96757.59;;;-0.11;100.00
33454;BME280;39400;49.744;7.012;2023-04-03T03:01:44;96763.00;;;-0.11;100.00
33454;BME280;39400;49.744;7.012;2023-04-03T03:04:09;96759.59;;;-0.03;100.00
33454;BME280;39400;49.744;7.012;2023-04-03T03:06:34;96757.31;;;0.13;100.00
33454;BME280;39400;49.744;7.012;2023-04-03T03:09:00;96752.31;;;0.43;100.00
33454;BME280;39400;49.744;7.012;2023-04-03T03:11:25;96751.72;;;0.10;100.00
33454;BME280;39400;49.744;7.012;2023-04-03T03:13:52;96754.38;;;0.01;100.00
33454;BME280;39400;49.744;7.012;2023-04-03T03:16:17;96760.44;;;-0.16;100.00
33454;BME280;39400;49.744;7.012;2023-04-03T03:18:42;96753.06;;;-0.24;100.00
33454;BME280;39400;49.744;7.012;2023-04-03T03:21:09;96751.59;;;-0.08;100.00
33454;BME280;39400;49.744;7.012;2023-04-03T03:23:34;96756.00;;;-0.12;100.00
33454;BME280;39400;49.744;7.012;2023-04-03T03:26:06;96758.09;;;-0.31;100.00
33454;BME280;39400;49.744;7.012;2023-04-03T03:28:33;96762.69;;;-0.45;100.00
33454;BME280;39400;49.744;7.012;2023-04-03T03:30:59;96761.31;;;-0.57;100.00
33454;BME280;39400;49.744;7.012;2023-04-03T03:33:26;96763.09;;;-0.66;100.00
33454;BME280;39400;49.744;7.012;2023-04-03T03:35:52;96764.91;;;-0.75;100.00
33454;BME280;39400;49.744;7.012;2023-04-03T03:38:17;96765.72;;;-0.75;100.00
33454;BME280;39400;49.744;7.012;2023-04-03T03:40:43;96762.91;;;-0.83;100.00
33454;BME280;39400;49.744;7.012;2023-04-03T03:43:08;96765.00;;;-0.80;100.00
33454;BME280;39400;49.744;7.012;2023-04-03T03:45:34;96765.91;;;-0.57;100.00
33454;BME280;39400;49.744;7.012;2023-04-03T03:48:01;96762.41;;;-0.58;100.00
33454;BME280;39400;49.744;7.012;2023-04-03T03:50:26;96775.81;;;-0.66;100.00
33454;BME280;39400;49.744;7.012;2023-04-03T03:52:52;96761.81;;;-0.68;100.00
33454;BME280;39400;49.744;7.012;2023-04-03T03:55:18;96767.81;;;-0.72;100.00
33454;BME280;39400;49.744;7.012;2023-04-03T03:57:46;96770.53;;;-0.72;100.00
33454;BME280;39400;49.744;7.012;2023-04-03T04:00:12;96771.91;;;-0.74;100.00
33454;BME280;39400;49.744;7.012;2023-04-03T04:02:41;96768.03;;;-0.68;100.00
33454;BME280;39400;49.744;7.012;2023-04-03T04:05:08;96765.50;;;-0.64;100.00
33454;BME280;39400;49.744;7.012;2023-04-03T04:07:34;96764.31;;;-0.58;100.00
33454;BME280;39400;49.744;7.012;2023-04-03T04:10:00;96754.91;;;-0.61;100.00
33454;BME280;39400;49.744;7.012;2023-04-03T04:12:26;96759.41;;;-0.70;100.00
33454;BME280;39400;49.744;7.012;2023-04-03T04:14:51;96763.34;;;-0.76;100.00
33454;BME280;39400;49.744;7.012;2023-04-03T04:17:17;96754.31;;;-0.72;100.00
33454;BME280;39400;49.744;7.012;2023-04-03T04:19:43;96761.81;;;-0.82;100.00
33454;BME280;39400;49.744;7.012;2023-04-03T04:22:08;96765.84;;;-0.93;100.00
33454;BME280;39400;49.744;7.012;2023-04-03T04:24:34;96769.50;;;-1.03;100.00
33454;BME280;39400;49.744;7.012;2023-04-03T04:27:00;96764.72;;;-1.06;100.00
33454;BME280;39400;49.744;7.012;2023-04-03T04:29:26;96766.22;;;-1.00;100.00
33454;BME280;39400;49.744;7.012;2023-04-03T04:31:52;96765.72;;;-0.88;100.00
33454;BME280;39400;49.744;7.012;2023-04-03T04:34:17;96768.00;;;-0.96;100.00
33454;BME280;39400;49.744;7.012;2023-04-03T04:36:43;96763.53;;;-0.86;100.00
33454;BME280;39400;49.744;7.012;2023-04-03T04:39:09;96758.13;;;-0.86;100.00
33454;BME280;39400;49.744;7.012;2023-04-03T04:41:34;96766.91;;;-0.81;100.00
33454;BME280;39400;49.744;7.012;2023-04-03T04:44:02;96759.53;;;-0.89;100.00
33454;BME280;39400;49.744;7.012;2023-04-03T04:46:28;96765.13;;;-0.85;100.00
33454;BME280;39400;49.744;7.012;2023-04-03T04:48:57;96757.50;;;-0.83;100.00
33454;BME280;39400;49.744;7.012;2023-04-03T04:51:26;96758.13;;;-0.86;100.00
33454;BME280;39400;49.744;7.012;2023-04-03T04:53:52;96770.13;;;-0.92;100.00
33454;BME280;39400;49.744;7.012;2023-04-03T04:56:18;96766.31;;;-0.91;100.00
33454;BME280;39400;49.744;7.012;2023-04-03T04:58:44;96761.63;;;-0.86;100.00
33454;BME280;39400;49.744;7.012;2023-04-03T05:01:10;96756.13;;;-0.81;100.00
33454;BME280;39400;49.744;7.012;2023-04-03T05:03:44;96765.72;;;-0.88;100.00
33454;BME280;39400;49.744;7.012;2023-04-03T05:06:10;96771.81;;;-0.97;100.00
33454;BME280;39400;49.744;7.012;2023-04-03T05:08:36;96761.50;;;-0.94;100.00
33454;BME280;39400;49.744;7.012;2023-04-03T05:11:02;96761.13;;;-0.88;100.00
33454;BME280;39400;49.744;7.012;2023-04-03T05:13:29;96759.72;;;-0.85;100.00
33454;BME280;39400;49.744;7.012;2023-04-03T05:15:55;96762.91;;;-0.83;100.00
33454;BME280;39400;49.744;7.012;2023-04-03T05:18:21;96769.94;;;-0.82;100.00
33454;BME280;39400;49.744;7.012;2023-04-03T05:20:49;96770.72;;;-0.82;100.00
33454;BME280;39400;49.744;7.012;2023-04-03T05:23:14;96772.22;;;-0.76;100.00
33454;BME280;39400;49.744;7.012;2023-04-03T05:25:40;96770.31;;;-0.75;100.00
33454;BME280;39400;49.744;7.012;2023-04-03T05:28:07;96771.13;;;-0.75;100.00
33454;BME280;39400;49.744;7.012;2023-04-03T05:30:33;96782.50;;;-0.64;100.00
33454;BME280;39400;49.744;7.012;2023-04-03T05:33:00;96772.47;;;-0.36;100.00
33454;BME280;39400;49.744;7.012;2023-04-03T05:35:37;96770.88;;;-0.23;100.00
33454;BME280;39400;49.744;7.012;2023-04-03T05:38:02;96773.19;;;0.06;100.00
33454;BME280;39400;49.744;7.012;2023-04-03T05:40:28;96782.03;;;-0.02;100.00
33454;BME280;39400;49.744;7.012;2023-04-03T05:42:55;96784.44;;;-0.14;100.00
33454;BME280;39400;49.744;7.012;2023-04-03T05:45:23;96785.38;;;-0.19;100.00
33454;BME280;39400;49.744;7.012;2023-04-03T05:47:48;96788.44;;;-0.12;100.00
33454;BME280;39400;49.744;7.012;2023-04-03T05:50:14;96794.13;;;0.01;100.00
33454;BME280;39400;49.744;7.012;2023-04-03T05:52:44;96794.53;;;0.08;100.00
33454;BME280;39400;49.744;7.012;2023-04-03T05:55:11;96788.78;;;0.09;100.00
33454;BME280;39400;49.744;7.012;2023-04-03T05:57:36;96801.38;;;0.14;100.00
33454;BME280;39400;49.744;7.012;2023-04-03T06:00:07;96805.41;;;0.16;100.00
33454;BME280;39400;49.744;7.012;2023-04-03T06:02:39;96795.31;;;0.31;100.00
33454;BME280;39400;49.744;7.012;2023-04-03T06:05:05;96802.16;;;0.28;100.00
33454;BME280;39400;49.744;7.012;2023-04-03T06:07:30;96801.53;;;0.31;100.00
33454;BME280;39400;49.744;7.012;2023-04-03T06:09:56;96806.94;;;0.31;100.00
33454;BME280;39400;49.744;7.012;2023-04-03T06:12:22;96809.78;;;0.71;100.00
33454;BME280;39400;49.744;7.012;2023-04-03T06:14:48;96802.00;;;0.69;100.00
33454;BME280;39400;49.744;7.012;2023-04-03T06:17:14;96818.16;;;0.83;100.00
33454;BME280;39400;49.744;7.012;2023-04-03T06:19:40;96811.88;;;1.36;100.00
33454;BME280;39400;49.744;7.012;2023-04-03T06:22:05;96809.22;;;1.54;100.00
33454;BME280;39400;49.744;7.012;2023-04-03T06:24:31;96810.06;;;1.23;100.00
33454;BME280;39400;49.744;7.012;2023-04-03T06:26:57;96816.19;;;1.06;100.00
33454;BME280;39400;49.744;7.012;2023-04-03T06:29:23;96813.22;;;1.16;100.00
33454;BME280;39400;49.744;7.012;2023-04-03T06:31:49;96819.94;;;1.19;100.00
33454;BME280;39400;49.744;7.012;2023-04-03T06:34:14;96819.31;;;1.22;100.00
33454;BME280;39400;49.744;7.012;2023-04-03T06:36:39;96821.53;;;1.20;100.00
33454;BME280;39400;49.744;7.012;2023-04-03T06:39:05;96826.06;;;1.33;100.00
33454;BME280;39400;49.744;7.012;2023-04-03T06:41:30;96827.75;;;1.69;100.00
33454;BME280;39400;49.744;7.012;2023-04-03T06:43:56;96839.00;;;1.94;100.00
33454;BME280;39400;49.744;7.012;2023-04-03T06:46:22;96832.56;;;1.72;100.00
33454;BME280;39400;49.744;7.012;2023-04-03T06:48:48;96839.16;;;1.49;100.00
33454;BME280;39400;49.744;7.012;2023-04-03T06:51:17;96843.50;;;1.50;100.00
33454;BME280;39400;49.744;7.012;2023-04-03T06:53:43;96842.09;;;2.35;100.00
33454;BME280;39400;49.744;7.012;2023-04-03T06:56:08;96840.78;;;1.98;100.00
33454;BME280;39400;49.744;7.012;2023-04-03T06:58:33;96845.69;;;1.87;100.00
33454;BME280;39400;49.744;7.012;2023-04-03T07:00:59;96847.63;;;1.96;100.00
33454;BME280;39400;49.744;7.012;2023-04-03T07:03:24;96851.81;;;2.19;100.00
33454;BME280;39400;49.744;7.012;2023-04-03T07:05:49;96850.69;;;2.11;100.00
33454;BME280;39400;49.744;7.012;2023-04-03T07:08:15;96849.25;;;2.14;100.00
33454;BME280;39400;49.744;7.012;2023-04-03T07:10:40;96856.59;;;2.05;100.00
33454;BME280;39400;49.744;7.012;2023-04-03T07:13:05;96859.13;;;2.10;100.00
33454;BME280;39400;49.744;7.012;2023-04-03T07:15:31;96853.53;;;2.06;100.00
33454;BME280;39400;49.744;7.012;2023-04-03T07:17:56;96862.97;;;2.18;100.00
33454;BME280;39400;49.744;7.012;2023-04-03T07:20:21;96859.81;;;2.42;100.00
33454;BME280;39400;49.744;7.012;2023-04-03T07:22:47;96858.53;;;2.30;100.00
33454;BME280;39400;49.744;7.012;2023-04-03T07:25:12;96858.22;;;2.41;100.00
33454;BME280;39400;49.744;7.012;2023-04-03T07:27:37;96871.78;;;2.41;100.00
33454;BME280;39400;49.744;7.012;2023-04-03T07:30:03;96863.19;;;2.47;100.00
33454;BME280;39400;49.744;7.012;2023-04-03T07:32:28;96862.53;;;2.59;100.00
33454;BME280;39400;49.744;7.012;2023-04-03T07:34:54;96864.94;;;2.69;100.00
33454;BME280;39400;49.744;7.012;2023-04-03T07:37:19;96859.03;;;2.76;100.00
33454;BME280;39400;49.744;7.012;2023-04-03T07:39:44;96871.31;;;2.73;100.00
33454;BME280;39400;49.744;7.012;2023-04-03T07:42:10;96866.16;;;3.15;100.00
33454;BME280;39400;49.744;7.012;2023-04-03T07:44:35;96873.50;;;3.23;100.00
33454;BME280;39400;49.744;7.012;2023-04-03T07:47:01;96868.06;;;3.23;100.00
33454;BME280;39400;49.744;7.012;2023-04-03T07:49:26;96866.16;;;3.15;100.00
33454;BME280;39400;49.744;7.012;2023-04-03T07:51:51;96870.50;;;3.07;100.00
33454;BME280;39400;49.744;7.012;2023-04-03T07:54:17;96867.94;;;3.02;100.00
33454;BME280;39400;49.744;7.012;2023-04-03T07:56:42;96873.88;;;3.60;100.00
33454;BME280;39400;49.744;7.012;2023-04-03T07:59:07;96876.03;;;3.28;100.00
33454;BME280;39400;49.744;7.012;2023-04-03T08:01:32;96883.44;;;3.19;100.00
33454;BME280;39400;49.744;7.012;2023-04-03T08:03:58;96876.69;;;3.25;100.00
33454;BME280;39400;49.744;7.012;2023-04-03T08:06:23;96882.41;;;3.32;100.00
33454;BME280;39400;49.744;7.012;2023-04-03T08:08:48;96883.09;;;3.29;100.00
33454;BME280;39400;49.744;7.012;2023-04-03T08:11:14;96880.06;;;3.69;100.00
33454;BME280;39400;49.744;7.012;2023-04-03T08:13:39;96863.22;;;3.85;100.00
33454;BME280;39400;49.744;7.012;2023-04-03T08:16:13;96870.81;;;4.00;100.00
33454;BME280;39400;49.744;7.012;2023-04-03T08:18:41;96879.78;;;3.62;100.00
33454;BME280;39400;49.744;7.012;2023-04-03T08:21:08;96875.00;;;3.59;100.00
33454;BME280;39400;49.744;7.012;2023-04-03T08:23:34;96877.84;;;3.71;100.00
33454;BME280;39400;49.744;7.012;2023-04-03T08:26:08;96874.47;;;3.74;100.00
33454;BME280;39400;49.744;7.012;2023-04-03T08:28:33;96883.50;;;3.96;100.00
33454;BME280;39400;49.744;7.012;2023-04-03T08:31:03;96869.63;;;3.80;100.00
33454;BME280;39400;49.744;7.012;2023-04-03T08:33:28;96875.28;;;3.66;100.00
33454;BME280;39400;49.744;7.012;2023-04-03T08:35:54;96874.28;;;3.79;100.00
33454;BME280;39400;49.744;7.012;2023-04-03T08:38:19;96881.16;;;3.77;100.00
33454;BME280;39400;49.744;7.012;2023-04-03T08:40:44;96892.72;;;3.65;100.00
33454;BME280;39400;49.744;7.012;2023-04-03T08:45:57;96877.84;;;3.71;100.00
33454;BME280;39400;49.744;7.012;2023-04-03T08:48:30;96887.78;;;3.67;99.18
33454;BME280;39400;49.744;7.012;2023-04-03T08:51:00;96893.81;;;3.81;100.00
33454;BME280;39400;49.744;7.012;2023-04-03T08:53:30;96880.66;;;3.84;100.00
33454;BME280;39400;49.744;7.012;2023-04-03T08:55:58;96886.78;;;4.10;99.11
33454;BME280;39400;49.744;7.012;2023-04-03T08:58:25;96896.44;;;3.99;100.00
33454;BME280;39400;49.744;7.012;2023-04-03T09:00:56;96889.59;;;3.93;97.95
33454;BME280;39400;49.744;7.012;2023-04-03T09:03:23;96887.78;;;3.67;96.71
33454;BME280;39400;49.744;7.012;2023-04-03T09:06:29;96895.75;;;3.72;98.58
33454;BME280;39400;49.744;7.012;2023-04-03T09:15:06;96895.16;;;3.96;100.00
33454;BME280;39400;49.744;7.012;2023-04-03T09:20:33;96891.81;;;3.91;96.95
33454;BME280;39400;49.744;7.012;2023-04-03T09:22:54;96895.59;;;4.07;100.00
33454;BME280;39400;49.744;7.012;2023-04-03T09:27:50;96885.97;;;4.60;99.72
33454;BME280;39400;49.744;7.012;2023-04-03T09:30:17;96882.13;;;4.61;97.05
33454;BME280;39400;49.744;7.012;2023-04-03T09:32:47;96893.00;;;5.03;92.80
33454;BME280;39400;49.744;7.012;2023-04-03T09:37:39;96884.25;;;4.76;95.19
33454;BME280;39400;49.744;7.012;2023-04-03T09:40:11;96888.50;;;4.65;94.34
33454;BME280;39400;49.744;7.012;2023-04-03T09:42:56;96894.47;;;4.59;94.60
33454;BME280;39400;49.744;7.012;2023-04-03T09:45:27;96882.25;;;4.86;96.10
33454;BME280;39400;49.744;7.012;2023-04-03T09:53:38;96879.19;;;4.66;92.31
33454;BME280;39400;49.744;7.012;2023-04-03T09:58:49;96888.50;;;4.65;93.15
33454;BME280;39400;49.744;7.012;2023-04-03T10:01:34;96883.91;;;4.57;93.03
33454;BME280;39400;49.744;7.012;2023-04-03T10:04:11;96882.00;;;4.79;91.57
33454;BME280;39400;49.744;7.012;2023-04-03T10:06:45;96890.63;;;4.81;92.03
33454;BME280;39400;49.744;7.012;2023-04-03T10:09:30;96881.88;;;4.75;91.74
33454;BME280;39400;49.744;7.012;2023-04-03T10:12:09;96885.69;;;4.95;92.60
33454;BME280;39400;49.744;7.012;2023-04-03T10:14:40;96882.84;;;4.91;90.23
33454;BME280;39400;49.744;7.012;2023-04-03T10:17:25;96884.78;;;4.91;88.10
33454;BME280;39400;49.744;7.012;2023-04-03T10:20:29;96876.16;;;4.68;88.20
33454;BME280;39400;49.744;7.012;2023-04-03T10:23:21;96876.28;;;4.92;87.92
33454;BME280;39400;49.744;7.012;2023-04-03T10:33:53;96869.00;;;5.87;88.54
33454;BME280;39400;49.744;7.012;2023-04-03T10:36:38;96860.34;;;6.47;84.04
33454;BME280;39400;49.744;7.012;2023-04-03T10:39:17;96861.41;;;6.05;80.11
33454;BME280;39400;49.744;7.012;2023-04-03T10:42:08;96873.44;;;5.80;86.53
33454;BME280;39400;49.744;7.012;2023-04-03T10:47:09;96859.03;;;6.04;85.47
33454;BME280;39400;49.744;7.012;2023-04-03T10:49:59;96860.50;;;6.38;79.59
33454;BME280;39400;49.744;7.012;2023-04-03T10:57:53;96860.94;;;6.15;88.20
33454;BME280;39400;49.744;7.012;2023-04-03T11:00:34;96866.31;;;6.24;85.04
33454;BME280;39400;49.744;7.012;2023-04-03T11:03:05;96861.41;;;6.05;84.30
33454;BME280;39400;49.744;7.012;2023-04-03T11:05:40;96854.56;;;5.87;83.51
33454;BME280;39400;49.744;7.012;2023-04-03T11:08:15;96869.44;;;5.65;82.84
33454;BME280;39400;49.744;7.012;2023-04-03T11:10:49;96863.53;;;5.87;84.07
33454;BME280;39400;49.744;7.012;2023-04-03T11:13:21;96862.97;;;5.82;81.36
33454;BME280;39400;49.744;7.012;2023-04-03T11:15:49;96861.59;;;5.88;81.37
33454;BME280;39400;49.744;7.012;2023-04-03T11:18:18;96853.78;;;5.86;81.25
33454;BME280;39400;49.744;7.012;2023-04-03T11:20:55;96859.38;;;6.14;81.50
33454;BME280;39400;49.744;7.012;2023-04-03T11:23:25;96842.19;;;6.14;80.90
33454;BME280;39400;49.744;7.012;2023-04-03T11:25:53;96848.31;;;6.23;81.09
33454;BME280;39400;49.744;7.012;2023-04-03T11:28:20;96848.25;;;6.60;82.74
33454;BME280;39400;49.744;7.012;2023-04-03T11:33:24;96844.09;;;6.26;83.76
33454;BME280;39400;49.744;7.012;2023-04-03T11:36:02;96841.16;;;6.31;82.18
33454;BME280;39400;49.744;7.012;2023-04-03T11:38:33;96844.06;;;6.50;78.83
33454;BME280;39400;49.744;7.012;2023-04-03T11:41:00;96842.22;;;6.66;81.14
33454;BME280;39400;49.744;7.012;2023-04-03T11:43:28;96840.44;;;7.14;85.12
33454;BME280;39400;49.744;7.012;2023-04-03T11:45:56;96824.06;;;7.46;84.81
33454;BME280;39400;49.744;7.012;2023-04-03T11:50:58;96822.31;;;7.38;74.42
33454;BME280;39400;49.744;7.012;2023-04-03T11:53:28;96825.88;;;6.42;74.79
33454;BME280;39400;49.744;7.012;2023-04-03T11:58:24;96828.84;;;6.37;79.86
33454;BME280;39400;49.744;7.012;2023-04-03T12:01:01;96832.84;;;6.80;83.54
33454;BME280;39400;49.744;7.012;2023-04-03T12:08:43;96826.50;;;7.20;75.11
33454;BME280;39400;49.744;7.012;2023-04-03T12:26:30;96818.34;;;7.83;79.10
33454;BME280;39400;49.744;7.012;2023-04-03T12:28:57;96820.09;;;7.75;75.49
33454;BME280;39400;49.744;7.012;2023-04-03T12:31:25;96813.53;;;7.96;75.12
33454;BME280;39400;49.744;7.012;2023-04-03T12:34:19;96802.91;;;8.26;77.91
33454;BME280;39400;49.744;7.012;2023-04-03T12:37:34;96801.41;;;8.64;74.70
33454;BME280;39400;49.744;7.012;2023-04-03T12:45:20;96797.22;;;8.70;73.56
33454;BME280;39400;49.744;7.012;2023-04-03T12:47:48;96800.25;;;8.84;71.47
33454;BME280;39400;49.744;7.012;2023-04-03T12:50:31;96798.88;;;8.74;71.13
33454;BME280;39400;49.744;7.012;2023-04-03T12:53:01;96792.44;;;8.86;72.57
33454;BME280;39400;49.744;7.012;2023-04-03T12:55:29;96782.97;;;9.03;72.41
33454;BME280;39400;49.744;7.012;2023-04-03T12:57:54;96786.47;;;9.23;68.84
33454;BME280;39400;49.744;7.012;2023-04-03T13:02:45;96786.28;;;9.12;70.37
33454;BME280;39400;49.744;7.012;2023-04-03T13:05:16;96782.31;;;9.10;70.56
33454;BME280;39400;49.744;7.012;2023-04-03T13:07:42;96782.56;;;9.24;68.65
33454;BME280;39400;49.744;7.012;2023-04-03T13:12:35;96782.28;;;9.29;68.21
33454;BME280;39400;49.744;7.012;2023-04-03T13:15:28;96786.72;;;9.37;69.16
33454;BME280;39400;49.744;7.012;2023-04-03T13:17:54;96782.91;;;8.99;66.41
33454;BME280;39400;49.744;7.012;2023-04-03T13:22:59;96768.31;;;7.86;68.03
33454;BME280;39400;49.744;7.012;2023-04-03T13:25:28;96780.91;;;7.71;68.37
33454;BME280;39400;49.744;7.012;2023-04-03T13:27:55;96774.00;;;7.14;68.95
33454;BME280;39400;49.744;7.012;2023-04-03T13:30:27;96789.91;;;6.96;69.17
33454;BME280;39400;49.744;7.012;2023-04-03T13:32:54;96770.50;;;6.57;71.83
33454;BME280;39400;49.744;7.012;2023-04-03T13:35:40;96777.19;;;7.63;74.04
33454;BME280;39400;49.744;7.012;2023-04-03T13:40:56;96781.34;;;8.24;69.19
33454;BME280;39400;49.744;7.012;2023-04-03T13:43:27;96768.94;;;8.30;68.92
33454;BME280;39400;49.744;7.012;2023-04-03T13:48:40;96772.78;;;9.03;65.41
33454;BME280;39400;49.744;7.012;2023-04-03T13:51:27;96778.50;;;9.37;67.88
33454;BME280;39400;49.744;7.012;2023-04-03T13:53:57;96770.44;;;9.97;64.97
33454;BME280;39400;49.744;7.012;2023-04-03T13:56:57;96762.94;;;10.21;64.54
33454;BME280;39400;49.744;7.012;2023-04-03T14:01:45;96762.34;;;10.31;61.22
33454;BME280;39400;49.744;7.012;2023-04-03T14:04:20;96754.56;;;10.37;63.42
33454;BME280;39400;49.744;7.012;2023-04-03T14:06:46;96757.88;;;9.96;62.81
33454;BME280;39400;49.744;7.012;2023-04-03T14:09:13;96754.44;;;10.26;61.17
33454;BME280;39400;49.744;7.012;2023-04-03T14:11:39;96766.13;;;10.23;62.82
33454;BME280;39400;49.744;7.012;2023-04-03T14:14:17;96760.25;;;9.02;62.21
33454;BME280;39400;49.744;7.012;2023-04-03T14:16:47;96767.50;;;8.37;63.53
33454;BME280;39400;49.744;7.012;2023-04-03T14:19:34;96757.34;;;9.15;62.72
33454;BME280;39400;49.744;7.012;2023-04-03T14:22:03;96754.63;;;9.87;62.25
33454;BME280;39400;49.744;7.012;2023-04-03T14:24:31;96756.09;;;10.34;62.65
33454;BME280;39400;49.744;7.012;2023-04-03T14:26:57;96755.47;;;9.91;61.90
33454;BME280;39400;49.744;7.012;2023-04-03T14:29:23;96762.16;;;9.67;59.55
33454;BME280;39400;49.744;7.012;2023-04-03T14:31:49;96757.03;;;10.45;61.29
33454;BME280;39400;49.744;7.012;2023-04-03T14:34:15;96756.47;;;10.63;58.13
33454;BME280;39400;49.744;7.012;2023-04-03T14:36:42;96763.94;;;11.33;58.96
33454;BME280;39400;49.744;7.012;2023-04-03T14:39:11;96762.47;;;11.06;56.79